createdAt,value
2019-04-05T00:00:33.916Z,11.43
2019-04-05T00:03:02.820Z,11.34
2019-04-05T00:05:30.598Z,11.39
2019-04-05T00:07:58.412Z,11.13
2019-04-05T00:10:26.154Z,11.12
2019-04-05T00:12:54.206Z,11.20
2019-04-05T00:15:21.931Z,11.26
2019-04-05T00:17:49.702Z,11.27
2019-04-05T00:20:17.419Z,11.47
2019-04-05T00:22:45.165Z,11.28
2019-04-05T00:25:12.922Z,11.30
2019-04-05T00:27:40.684Z,11.14
2019-04-05T00:30:08.809Z,11.23
2019-04-05T00:32:36.575Z,11.15
2019-04-05T00:35:04.634Z,11.12
2019-04-05T00:37:32.379Z,11.19
2019-04-05T00:40:00.102Z,11.38
2019-04-05T00:42:27.859Z,11.24
2019-04-05T00:44:55.580Z,11.48
2019-04-05T00:47:23.427Z,11.37
2019-04-05T00:49:51.142Z,11.42
2019-04-05T00:52:18.902Z,11.52
2019-04-05T00:54:46.626Z,11.59
2019-04-05T00:57:14.407Z,11.71
2019-04-05T00:59:42.135Z,11.66
2019-04-05T01:02:09.856Z,11.70
2019-04-05T01:04:37.625Z,11.64
2019-04-05T01:07:05.579Z,11.63
2019-04-05T01:09:33.361Z,11.64
2019-04-05T01:12:01.618Z,11.54
2019-04-05T01:14:29.959Z,11.55
2019-04-05T01:16:57.803Z,11.63
2019-04-05T01:19:31.479Z,11.63
2019-04-05T01:22:04.979Z,11.53
2019-04-05T01:24:33.459Z,11.38
2019-04-05T01:27:02.948Z,11.40
2019-04-05T01:29:30.695Z,11.35
2019-04-05T01:31:58.412Z,11.44
2019-04-05T01:34:26.163Z,11.34
2019-04-05T01:36:54.105Z,11.47
2019-04-05T01:39:21.851Z,11.34
2019-04-05T01:41:49.995Z,11.40
2019-04-05T01:44:18.148Z,11.40
2019-04-05T01:46:45.904Z,11.40
2019-04-05T01:49:13.666Z,11.46
2019-04-05T01:51:41.870Z,11.41
2019-04-05T01:54:09.728Z,11.42
2019-04-05T01:56:37.470Z,11.35
2019-04-05T01:59:05.200Z,11.33
2019-04-05T02:01:32.930Z,11.48
2019-04-05T02:04:00.684Z,11.51
2019-04-05T02:06:28.820Z,11.60
2019-04-05T02:08:56.677Z,11.53
2019-04-05T02:11:24.501Z,11.38
2019-04-05T02:13:52.451Z,11.44
2019-04-05T02:16:20.190Z,11.50
2019-04-05T02:18:47.945Z,11.47
2019-04-05T02:21:15.680Z,11.54
2019-04-05T02:23:43.525Z,11.62
2019-04-05T02:26:11.378Z,11.48
2019-04-05T02:28:39.135Z,11.55
2019-04-05T02:31:06.905Z,11.60
2019-04-05T02:33:34.641Z,11.57
2019-04-05T02:36:02.384Z,11.61
2019-04-05T02:38:30.101Z,11.59
2019-04-05T02:41:00.272Z,11.50
2019-04-05T02:43:32.882Z,11.49
2019-04-05T02:46:02.704Z,11.59
2019-04-05T02:48:35.947Z,11.57
2019-04-05T02:51:05.780Z,11.51
2019-04-05T02:53:35.718Z,11.44
2019-04-05T02:56:05.319Z,11.45
2019-04-05T02:58:35.344Z,11.33
2019-04-05T03:01:03.179Z,11.35
2019-04-05T03:03:31.018Z,11.33
2019-04-05T03:05:58.757Z,11.48
2019-04-05T03:08:26.898Z,11.52
2019-04-05T03:11:10.409Z,11.45
2019-04-05T03:13:47.812Z,11.49
2019-04-05T03:16:38.503Z,11.42
2019-04-05T03:19:05.513Z,11.54
2019-04-05T03:21:38.361Z,11.53
2019-04-05T03:24:11.598Z,11.55
2019-04-05T03:26:45.354Z,11.47
2019-04-05T03:29:13.398Z,11.50
2019-04-05T03:31:41.426Z,11.37
2019-04-05T03:34:09.589Z,11.45
2019-04-05T03:36:38.358Z,11.24
2019-04-05T03:39:07.039Z,11.08
2019-04-05T03:41:35.427Z,11.06
2019-04-05T03:44:03.457Z,11.09
2019-04-05T03:46:32.117Z,10.95
2019-04-05T03:49:00.190Z,11.11
2019-04-05T03:51:28.118Z,11.22
2019-04-05T03:53:55.970Z,11.41
2019-04-05T03:56:24.155Z,11.31
2019-04-05T03:58:51.954Z,11.13
2019-04-05T04:01:19.728Z,11.14
2019-04-05T04:03:47.542Z,11.00
2019-04-05T04:06:15.460Z,11.27
2019-04-05T04:08:43.360Z,11.14
2019-04-05T04:11:11.278Z,11.07
2019-04-05T04:13:39.327Z,11.00
2019-04-05T04:16:07.168Z,11.16
2019-04-05T04:18:35.296Z,11.37
2019-04-05T04:21:31.689Z,11.29
2019-04-05T04:23:59.518Z,11.10
2019-04-05T04:26:27.380Z,10.95
2019-04-05T04:28:56.118Z,10.89
2019-04-05T04:31:24.051Z,10.85
2019-04-05T04:33:52.298Z,10.79
2019-04-05T04:36:20.883Z,11.00
2019-04-05T04:38:49.539Z,11.04
2019-04-05T04:41:17.380Z,11.04
2019-04-05T04:43:45.128Z,11.06
2019-04-05T04:46:12.900Z,11.11
2019-04-05T04:48:41.510Z,10.98
2019-04-05T04:51:10.141Z,10.93
2019-04-05T04:53:38.393Z,10.94
2019-04-05T04:56:06.577Z,10.83
2019-04-05T04:58:34.615Z,10.92
2019-04-05T05:01:03.055Z,11.05
2019-04-05T05:03:31.097Z,11.04
2019-04-05T05:05:58.921Z,10.91
2019-04-05T05:08:26.782Z,10.96
2019-04-05T05:10:54.805Z,10.95
2019-04-05T05:13:22.864Z,10.89
2019-04-05T05:15:50.730Z,10.94
2019-04-05T05:18:18.803Z,11.10
2019-04-05T05:20:46.651Z,11.06
2019-04-05T05:23:14.512Z,11.01
2019-04-05T05:25:42.465Z,11.24
2019-04-05T05:28:10.428Z,11.24
2019-04-05T05:30:38.169Z,11.19
2019-04-05T05:33:05.932Z,11.25
2019-04-05T05:35:33.830Z,11.27
2019-04-05T05:38:01.926Z,11.05
2019-04-05T05:40:35.027Z,11.12
2019-04-05T05:42:59.311Z,11.06
2019-04-05T05:45:27.024Z,11.24
2019-04-05T05:47:54.947Z,11.28
2019-04-05T05:50:22.680Z,11.14
2019-04-05T05:52:51.060Z,11.06
2019-04-05T05:55:18.896Z,11.00
2019-04-05T05:57:46.645Z,10.97
2019-04-05T06:00:19.039Z,10.89
2019-04-05T06:02:48.410Z,10.71
2019-04-05T06:05:16.424Z,10.55
2019-04-05T06:07:45.342Z,10.76
2019-04-05T06:10:13.108Z,10.89
2019-04-05T06:12:40.838Z,10.77
2019-04-05T06:15:09.134Z,10.68
2019-04-05T06:17:36.854Z,10.65
2019-04-05T06:20:06.232Z,10.53
2019-04-05T06:22:33.969Z,10.74
2019-04-05T06:25:01.737Z,10.63
2019-04-05T06:27:30.294Z,10.64
2019-04-05T06:29:58.050Z,10.75
2019-04-05T06:32:25.826Z,10.75
2019-04-05T06:34:56.420Z,10.87
2019-04-05T06:37:24.186Z,10.74
2019-04-05T06:39:51.907Z,10.65
2019-04-05T06:42:19.627Z,10.64
2019-04-05T06:44:47.407Z,10.74
2019-04-05T06:47:15.309Z,10.88
2019-04-05T06:49:43.141Z,10.79
2019-04-05T06:52:10.959Z,10.57
2019-04-05T06:54:38.711Z,10.57
2019-04-05T06:57:06.473Z,10.42
2019-04-05T06:59:34.447Z,10.38
2019-04-05T07:02:02.188Z,10.52
2019-04-05T07:04:31.153Z,10.66
2019-04-05T07:06:59.164Z,10.85
2019-04-05T07:09:26.903Z,10.73
2019-04-05T07:11:54.661Z,10.98
2019-04-05T07:14:22.422Z,10.76
2019-04-05T07:16:50.203Z,10.62
2019-04-05T07:19:17.943Z,10.58
2019-04-05T07:21:45.711Z,10.54
2019-04-05T07:24:13.459Z,10.56
2019-04-05T07:26:41.191Z,10.74
2019-04-05T07:29:08.952Z,10.89
2019-04-05T07:31:36.721Z,10.80
2019-04-05T07:34:04.840Z,11.00
2019-04-05T07:36:32.603Z,11.08
2019-04-05T07:39:00.448Z,11.00
2019-04-05T07:41:28.497Z,11.23
2019-04-05T07:44:02.605Z,11.12
2019-04-05T07:46:30.603Z,11.06
2019-04-05T07:48:58.331Z,11.13
2019-04-05T07:51:26.101Z,11.38
2019-04-05T07:53:53.871Z,11.48
2019-04-05T07:56:22.440Z,11.67
2019-04-05T07:58:50.242Z,11.49
2019-04-05T08:01:18.034Z,11.61
2019-04-05T08:03:46.630Z,11.75
2019-04-05T08:06:15.128Z,11.81
2019-04-05T08:09:02.404Z,11.77
2019-04-05T08:11:30.616Z,11.62
2019-04-05T08:14:01.166Z,11.58
2019-04-05T08:16:29.010Z,11.56
2019-04-05T08:18:58.322Z,11.60
2019-04-05T08:21:26.201Z,11.53
2019-04-05T08:23:54.036Z,11.67
2019-04-05T08:26:21.895Z,11.93
2019-04-05T08:28:49.654Z,11.85
2019-04-05T08:31:17.404Z,12.11
2019-04-05T08:33:45.209Z,12.29
2019-04-05T08:36:13.062Z,12.52
2019-04-05T08:38:40.805Z,12.55
2019-04-05T08:41:08.598Z,12.72
2019-04-05T08:43:36.348Z,12.54
2019-04-05T08:46:04.201Z,12.98
2019-04-05T08:48:31.955Z,13.20
2019-04-05T08:50:59.758Z,13.38
2019-04-05T08:53:27.527Z,13.50
2019-04-05T08:55:55.277Z,13.51
2019-04-05T08:58:32.813Z,13.71
2019-04-05T09:00:53.823Z,13.68
2019-04-05T09:03:21.616Z,14.00
2019-04-05T09:05:49.350Z,13.88
2019-04-05T09:08:17.130Z,14.25
2019-04-05T09:10:45.139Z,14.80
2019-04-05T09:13:12.889Z,14.89
2019-04-05T09:15:41.074Z,14.89
2019-04-05T09:18:09.770Z,14.75
2019-04-05T09:20:37.569Z,14.62
2019-04-05T09:23:05.348Z,14.54
2019-04-05T09:25:33.176Z,14.62
2019-04-05T09:28:00.962Z,14.61
2019-04-05T09:30:28.706Z,14.53
2019-04-05T09:32:56.598Z,14.44
2019-04-05T09:35:24.414Z,14.79
2019-04-05T09:37:52.545Z,15.06
2019-04-05T09:40:21.294Z,15.04
2019-04-05T09:42:49.397Z,15.10
2019-04-05T09:45:17.106Z,15.02
2019-04-05T09:47:44.912Z,15.00
2019-04-05T09:50:13.955Z,14.90
2019-04-05T09:52:41.732Z,14.84
2019-04-05T09:55:10.066Z,14.45
2019-04-05T09:57:37.907Z,14.23
2019-04-05T10:00:12.992Z,14.08
2019-04-05T10:02:41.861Z,14.37
2019-04-05T10:05:11.556Z,14.32
2019-04-05T10:07:53.803Z,14.06
2019-04-05T10:10:09.382Z,14.30
2019-04-05T10:12:37.152Z,14.18
2019-04-05T10:15:05.506Z,14.61
2019-04-05T10:17:33.261Z,14.74
2019-04-05T10:20:00.984Z,15.36
2019-04-05T10:22:28.987Z,15.73
2019-04-05T10:24:56.756Z,15.46
2019-04-05T10:27:24.575Z,15.70
2019-04-05T10:29:52.366Z,15.27
2019-04-05T10:32:20.109Z,15.28
2019-04-05T10:34:47.849Z,15.75
2019-04-05T10:37:15.626Z,16.24
2019-04-05T10:39:43.424Z,16.25
2019-04-05T10:42:29.808Z,15.94
2019-04-05T10:44:57.753Z,16.24
2019-04-05T10:47:25.515Z,16.09
2019-04-05T10:50:02.867Z,15.64
2019-04-05T10:52:22.973Z,15.62
2019-04-05T10:54:52.991Z,15.72
2019-04-05T10:57:20.863Z,15.96
2019-04-05T10:59:48.669Z,15.68
2019-04-05T11:02:16.385Z,16.01
2019-04-05T11:04:44.140Z,16.40
2019-04-05T11:07:11.904Z,16.29
2019-04-05T11:09:39.663Z,16.08
2019-04-05T11:12:08.740Z,16.10
2019-04-05T11:14:36.906Z,16.31
2019-04-05T11:17:05.152Z,16.31
2019-04-05T11:19:36.225Z,16.08
2019-04-05T11:22:03.102Z,16.53
2019-04-05T11:24:30.890Z,16.88
2019-04-05T11:26:58.906Z,17.38
2019-04-05T11:29:26.716Z,18.13
2019-04-05T11:31:57.447Z,18.70
2019-04-05T11:34:24.190Z,18.55
2019-04-05T11:36:52.377Z,19.44
2019-04-05T11:39:20.656Z,19.81
2019-04-05T11:41:52.190Z,20.95
2019-04-05T11:44:22.877Z,22.49
2019-04-05T11:46:50.608Z,25.66
2019-04-05T11:49:18.474Z,24.02
2019-04-05T11:51:47.903Z,23.42
2019-04-05T11:54:18.355Z,22.10
2019-04-05T11:56:45.284Z,22.64
2019-04-05T11:59:15.565Z,22.72
2019-04-05T12:02:12.604Z,24.10
2019-04-05T12:04:42.717Z,24.56
2019-04-05T12:07:10.007Z,23.66
2019-04-05T12:09:38.235Z,22.87
2019-04-05T12:12:06.004Z,22.68
2019-04-05T12:14:36.368Z,22.19
2019-04-05T12:17:05.438Z,21.74
2019-04-05T12:19:33.633Z,21.60
2019-04-05T12:22:04.536Z,21.46
2019-04-05T12:24:32.648Z,21.61
2019-04-05T12:27:02.622Z,23.46
2019-04-05T12:29:30.645Z,23.22
2019-04-05T12:31:58.407Z,25.59
2019-04-05T12:34:28.571Z,26.25
2019-04-05T12:36:55.835Z,24.85
2019-04-05T12:39:23.563Z,23.87
2019-04-05T12:41:51.299Z,23.43
2019-04-05T12:44:19.034Z,24.96
2019-04-05T12:46:46.789Z,25.55
2019-04-05T12:49:15.302Z,24.25
2019-04-05T12:51:45.578Z,23.80
2019-04-05T12:54:13.223Z,25.00
2019-04-05T12:56:40.973Z,26.79
2019-04-05T12:59:08.734Z,28.87
2019-04-05T13:01:36.932Z,29.78
2019-04-05T13:04:04.775Z,29.89
2019-04-05T13:06:32.541Z,29.02
2019-04-05T13:09:00.414Z,27.87
2019-04-05T13:11:28.304Z,25.69
2019-04-05T13:13:57.030Z,24.61
2019-04-05T13:16:24.956Z,23.65
2019-04-05T13:18:52.756Z,23.21
2019-04-05T13:21:20.586Z,24.59
2019-04-05T13:23:48.372Z,25.72
2019-04-05T13:26:16.162Z,26.73
2019-04-05T13:28:43.936Z,27.21
2019-04-05T13:31:11.708Z,28.87
2019-04-05T13:33:39.469Z,30.26
2019-04-05T13:36:08.583Z,29.65
2019-04-05T13:38:36.426Z,29.66
2019-04-05T13:41:04.244Z,28.03
2019-04-05T13:43:32.752Z,25.50
2019-04-05T13:46:00.582Z,23.03
2019-04-05T13:48:28.486Z,21.05
2019-04-05T13:50:56.265Z,21.78
2019-04-05T13:53:24.075Z,23.67
2019-04-05T13:55:51.808Z,24.60
2019-04-05T13:58:19.573Z,25.36
2019-04-05T14:00:48.750Z,25.92
2019-04-05T14:03:20.159Z,25.63
2019-04-05T14:05:46.736Z,25.53
2019-04-05T14:08:14.522Z,25.96
2019-04-05T14:10:42.286Z,26.31
2019-04-05T14:13:10.484Z,25.63
2019-04-05T14:15:41.819Z,25.62
2019-04-05T14:18:07.889Z,26.34
2019-04-05T14:20:35.646Z,26.26
2019-04-05T14:23:03.511Z,25.51
2019-04-05T14:25:31.319Z,24.85
2019-04-05T14:27:59.115Z,24.83
2019-04-05T14:30:26.870Z,24.36
2019-04-05T14:32:55.714Z,23.97
2019-04-05T14:35:25.244Z,23.99
2019-04-05T14:37:54.527Z,24.21
2019-04-05T14:40:22.929Z,24.81
2019-04-05T14:42:50.785Z,25.05
2019-04-05T14:45:18.664Z,24.61
2019-04-05T14:47:46.442Z,24.06
2019-04-05T14:50:16.151Z,23.15
2019-04-05T14:52:44.139Z,22.65
2019-04-05T14:55:11.903Z,21.90
2019-04-05T14:57:39.677Z,20.56
2019-04-05T15:00:08.502Z,20.34
2019-04-05T15:02:36.295Z,20.05
2019-04-05T15:05:04.949Z,19.95
2019-04-05T15:07:32.702Z,20.14
2019-04-05T15:10:03.486Z,20.12
2019-04-05T15:12:30.118Z,20.02
2019-04-05T15:14:57.876Z,19.71
2019-04-05T15:17:25.644Z,19.54
2019-04-05T15:19:53.425Z,19.21
2019-04-05T15:22:21.192Z,19.17
2019-04-05T15:24:48.985Z,18.84
2019-04-05T15:27:16.732Z,18.47
2019-04-05T15:29:44.484Z,18.46
2019-04-05T15:32:12.264Z,18.53
2019-04-05T15:34:40.010Z,18.52
2019-04-05T15:37:07.758Z,18.36
2019-04-05T15:39:35.549Z,18.35
2019-04-05T15:42:03.327Z,18.37
2019-04-05T15:44:31.131Z,18.11
2019-04-05T15:46:58.889Z,18.00
2019-04-05T15:49:26.674Z,17.88
2019-04-05T15:51:55.135Z,17.69
2019-04-05T15:54:24.146Z,17.62
2019-04-05T15:56:51.891Z,17.61
2019-04-05T15:59:21.821Z,17.53
2019-04-05T16:01:49.296Z,17.48
2019-04-05T16:04:17.102Z,17.11
2019-04-05T16:06:44.899Z,16.97
2019-04-05T16:09:16.524Z,16.81
2019-04-05T16:11:44.286Z,16.76
2019-04-05T16:14:12.035Z,16.60
2019-04-05T16:16:39.803Z,16.57
2019-04-05T16:19:07.594Z,16.34
2019-04-05T16:21:35.372Z,16.03
2019-04-05T16:24:03.232Z,15.72
2019-04-05T16:26:31.093Z,15.73
2019-04-05T16:28:58.880Z,15.67
2019-04-05T16:31:26.663Z,15.53
2019-04-05T16:33:54.627Z,15.52
2019-04-05T16:36:22.415Z,15.41
2019-04-05T16:38:50.247Z,15.39
2019-04-05T16:41:18.003Z,15.46
2019-04-05T16:43:45.765Z,15.37
2019-04-05T16:46:13.541Z,15.31
2019-04-05T16:48:41.319Z,15.18
2019-04-05T16:51:09.119Z,15.08
2019-04-05T16:53:38.762Z,14.98
2019-04-05T16:56:06.570Z,14.89
2019-04-05T16:58:34.280Z,14.82
2019-04-05T17:01:02.055Z,14.74
2019-04-05T17:03:29.802Z,14.66
2019-04-05T17:05:57.552Z,14.60
2019-04-05T17:08:25.317Z,14.51
2019-04-05T17:10:53.364Z,14.47
2019-04-05T17:13:21.202Z,14.40
2019-04-05T17:15:49.196Z,14.36
2019-04-05T17:18:16.935Z,14.33
2019-04-05T17:20:44.734Z,14.36
2019-04-05T17:23:12.480Z,14.25
2019-04-05T17:25:40.230Z,14.15
2019-04-05T17:28:07.976Z,14.06
2019-04-05T17:30:36.375Z,14.08
2019-04-05T17:33:04.310Z,13.98
2019-04-05T17:35:32.076Z,13.88
2019-04-05T17:37:59.860Z,13.85
2019-04-05T17:40:27.608Z,13.84
2019-04-05T17:42:55.590Z,13.71
2019-04-05T17:45:23.341Z,13.63
2019-04-05T17:47:51.135Z,13.58
2019-04-05T17:50:31.170Z,13.48
2019-04-05T17:53:11.511Z,13.45
2019-04-05T17:55:28.572Z,13.37
2019-04-05T17:57:57.701Z,13.34
2019-04-05T18:00:25.695Z,13.33
2019-04-05T18:02:54.515Z,13.27
2019-04-05T18:05:22.320Z,13.17
2019-04-05T18:07:50.107Z,13.13
2019-04-05T18:10:18.082Z,13.09
2019-04-05T18:12:45.834Z,13.10
2019-04-05T18:15:13.668Z,13.04
2019-04-05T18:17:42.000Z,13.04
2019-04-05T18:20:10.286Z,12.96
2019-04-05T18:22:38.115Z,12.94
2019-04-05T18:25:06.134Z,12.90
2019-04-05T18:27:33.917Z,12.85
2019-04-05T18:30:02.211Z,12.82
2019-04-05T18:32:31.367Z,12.76
2019-04-05T18:34:59.294Z,12.71
2019-04-05T18:37:27.412Z,12.66
2019-04-05T18:39:55.206Z,12.61
2019-04-05T18:42:23.019Z,12.56
2019-04-05T18:44:50.869Z,12.62
2019-04-05T18:47:18.678Z,12.58
2019-04-05T18:49:46.594Z,12.50
2019-04-05T18:52:14.338Z,12.47
2019-04-05T18:54:43.267Z,12.48
2019-04-05T18:57:14.012Z,12.44
2019-04-05T18:59:41.082Z,12.40
2019-04-05T19:02:08.861Z,12.33
2019-04-05T19:04:36.662Z,12.30
2019-04-05T19:07:04.528Z,12.30
2019-04-05T19:09:32.593Z,12.32
2019-04-05T19:12:00.386Z,12.28
2019-04-05T19:14:28.182Z,12.27
2019-04-05T19:16:59.069Z,12.18
2019-04-05T19:19:25.757Z,12.18
2019-04-05T19:21:53.817Z,12.14
2019-04-05T19:24:21.819Z,12.05
2019-04-05T19:26:49.636Z,12.07
2019-04-05T19:29:17.438Z,11.98
2019-04-05T19:49:14.743Z,11.36
2019-04-05T19:51:42.498Z,11.27
2019-04-05T19:54:10.354Z,11.24
2019-04-05T19:56:38.214Z,11.13
2019-04-05T19:59:06.327Z,11.05
2019-04-05T20:01:34.085Z,10.99
2019-04-05T20:04:01.864Z,10.95
2019-04-05T20:06:29.703Z,10.89
2019-04-05T20:08:57.515Z,10.92
2019-04-05T20:11:25.349Z,10.81
2019-04-05T20:13:54.289Z,10.77
2019-04-05T20:16:23.167Z,10.76
2019-04-05T20:18:51.018Z,10.68
2019-04-05T20:21:18.801Z,10.67
2019-04-05T20:23:47.761Z,10.64
2019-04-05T20:26:15.843Z,10.57
2019-04-05T20:28:43.602Z,10.51
2019-04-05T20:31:11.380Z,10.50
2019-04-05T20:33:39.149Z,10.49
2019-04-05T20:36:06.917Z,10.37
2019-04-05T20:38:34.683Z,10.30
2019-04-05T20:41:02.583Z,10.29
2019-04-05T20:43:30.326Z,10.27
2019-04-05T20:45:58.117Z,10.26
2019-04-05T20:48:25.845Z,10.19
2019-04-05T20:50:53.629Z,10.14
2019-04-05T20:53:21.387Z,10.15
2019-04-05T20:55:50.507Z,10.11
2019-04-05T20:58:18.295Z,10.14
2019-04-05T21:00:46.065Z,10.04
2019-04-05T21:03:13.844Z,10.00
2019-04-05T21:05:41.900Z,9.94
2019-04-05T21:08:09.640Z,9.93
2019-04-05T21:10:37.383Z,9.94
2019-04-05T21:13:05.141Z,9.90
2019-04-05T21:15:32.892Z,9.86
2019-04-05T21:18:00.633Z,9.81
2019-04-05T21:20:29.490Z,9.81
2019-04-05T21:22:57.236Z,9.81
2019-04-05T21:25:25.006Z,9.78
2019-04-05T21:27:52.768Z,9.69
2019-04-05T21:30:20.503Z,9.67
2019-04-05T21:32:48.261Z,9.63
2019-04-05T21:35:16.026Z,9.63
2019-04-05T21:37:43.783Z,9.60
2019-04-05T21:40:11.919Z,9.58
2019-04-05T21:42:40.019Z,9.62
2019-04-05T21:45:08.189Z,9.58
2019-04-05T21:47:35.921Z,9.52
2019-04-05T21:50:04.295Z,9.54
2019-04-05T21:52:32.378Z,9.53
2019-04-05T21:55:00.107Z,9.62
2019-04-05T21:57:27.893Z,9.52
2019-04-05T21:59:55.623Z,9.50
2019-04-05T22:02:23.421Z,9.57
2019-04-05T22:04:51.370Z,9.49
2019-04-05T22:07:19.269Z,9.43
2019-04-05T22:09:47.113Z,9.40
2019-04-05T22:12:14.962Z,9.33
2019-04-05T22:14:42.705Z,9.40
2019-04-05T22:17:10.491Z,9.32
2019-04-05T22:19:38.235Z,9.40
2019-04-05T22:22:05.986Z,9.38
2019-04-05T22:24:33.813Z,9.34
2019-04-05T22:27:01.554Z,9.38
2019-04-05T22:29:29.289Z,9.51
2019-04-05T22:31:57.055Z,9.69
2019-04-05T22:34:24.795Z,9.72
2019-04-05T22:36:52.557Z,9.51
2019-04-05T22:39:21.531Z,9.42
2019-04-05T22:41:49.446Z,9.52
2019-04-05T22:44:17.250Z,9.45
2019-04-05T22:46:45.013Z,9.36
2019-04-05T22:49:12.765Z,9.39
2019-04-05T22:51:40.529Z,9.42
2019-04-05T22:54:08.294Z,9.46
2019-04-05T22:56:36.087Z,9.59
2019-04-05T22:59:03.808Z,9.66
2019-04-05T23:01:31.562Z,9.66
2019-04-05T23:03:59.313Z,9.44
2019-04-05T23:06:27.644Z,9.39
2019-04-05T23:08:55.375Z,9.29
2019-04-05T23:11:23.380Z,9.15
2019-04-05T23:13:51.126Z,9.20
2019-04-05T23:16:18.895Z,9.20
2019-04-05T23:18:46.606Z,9.13
2019-04-05T23:21:14.398Z,9.11
2019-04-05T23:23:42.182Z,9.02
2019-04-05T23:26:09.958Z,8.90
2019-04-05T23:28:39.851Z,8.99
2019-04-05T23:31:07.672Z,9.02
2019-04-05T23:33:35.802Z,9.01
2019-04-05T23:36:03.728Z,9.01
2019-04-05T23:38:31.826Z,8.93
2019-04-05T23:40:59.561Z,8.89
2019-04-05T23:43:27.338Z,8.83
2019-04-05T23:45:55.272Z,8.76
2019-04-05T23:48:23.066Z,8.87
2019-04-05T23:50:50.812Z,8.89
2019-04-05T23:53:18.757Z,9.04
2019-04-05T23:55:46.489Z,8.97
2019-04-05T23:58:14.253Z,9.02
